Time;durP1;ratioP1;P1;durP2;ratioP2;P2;SDS_P1;SDS_P2;PMS_P1;PMS_P2;Temp;Humidity;BMP_temperature;BMP_pressure;BME280_temperature;BME280_humidity;BME280_pressure;Samples;Min_cycle;Max_cycle;Signal;HPM_P1;HPM_P2
2022/03/23 00:01:18;;;;;;;41.83;17.47;;;;;;;;;;5020637;28;20247;-67
2022/03/23 00:03:44;;;;;;;34.87;17.03;;;;;;;;;;5025991;28;20583;-67
2022/03/23 00:06:12;;;;;;;35.07;16.87;;;;;;;;;;5031296;28;20470;-67
2022/03/23 00:08:37;;;;;;;34.77;17.20;;;;;;;;;;5037450;28;20200;-66
2022/03/23 00:11:03;;;;;;;38.67;16.90;;;;;;;;;;5022639;28;20190;-67
2022/03/23 00:13:28;;;;;;;36.77;16.43;;;;;;;;;;5019120;28;20197;-66
2022/03/23 00:15:54;;;;;;;37.10;17.67;;;;;;;;;;5022035;28;20186;-67
2022/03/23 00:18:19;;;;;;;35.77;17.17;;;;;;;;;;5026550;28;20208;-66
2022/03/23 00:20:45;;;;;;;37.23;16.40;;;;;;;;;;5027866;28;20272;-67
2022/03/23 00:23:11;;;;;;;35.17;16.23;;;;;;;;;;5020885;28;20214;-67
2022/03/23 00:25:36;;;;;;;34.80;17.63;;;;;;;;;;5022886;28;20174;-67
2022/03/23 00:28:03;;;;;;;38.50;18.47;;;;;;;;;;5028069;28;20205;-67
2022/03/23 00:30:29;;;;;;;46.97;18.17;;;;;;;;;;5024165;28;20218;-67
2022/03/23 00:32:55;;;;;;;36.63;17.00;;;;;;;;;;5022953;28;20413;-66
2022/03/23 00:35:22;;;;;;;35.43;16.87;;;;;;;;;;5030836;28;20264;-67
2022/03/23 00:37:48;;;;;;;36.00;16.50;;;;;;;;;;5027820;28;20646;-67
2022/03/23 00:40:13;;;;;;;36.27;16.90;;;;;;;;;;5021852;28;20265;-67
2022/03/23 00:42:39;;;;;;;36.10;16.83;;;;;;;;;;5029585;28;20211;-67
2022/03/23 00:45:06;;;;;;;32.17;15.90;;;;;;;;;;5015772;28;20183;-67
2022/03/23 00:47:31;;;;;;;36.57;17.07;;;;;;;;;;5019323;28;20192;-66
2022/03/23 00:49:57;;;;;;;31.40;16.27;;;;;;;;;;5020469;28;20282;-68
2022/03/23 00:52:22;;;;;;;38.77;17.10;;;;;;;;;;5024479;28;20201;-67
2022/03/23 00:54:47;;;;;;;35.97;16.47;;;;;;;;;;5010827;28;20187;-67
2022/03/23 00:57:13;;;;;;;36.40;17.30;;;;;;;;;;5026213;28;20707;-66
2022/03/23 00:59:38;;;;;;;34.90;16.43;;;;;;;;;;5024137;28;20179;-67
2022/03/23 01:02:05;;;;;;;32.50;16.33;;;;;;;;;;5025277;28;20265;-67
2022/03/23 01:04:31;;;;;;;35.60;17.03;;;;;;;;;;5023294;28;20260;-67
2022/03/23 01:06:57;;;;;;;38.63;17.30;;;;;;;;;;5021571;28;20181;-67
2022/03/23 01:09:23;;;;;;;33.93;16.57;;;;;;;;;;5026299;28;20189;-67
2022/03/23 01:11:51;;;;;;;36.03;17.27;;;;;;;;;;5031747;28;20223;-67
2022/03/23 01:14:17;;;;;;;33.90;16.23;;;;;;;;;;5023690;28;20175;-66
2022/03/23 01:16:43;;;;;;;38.17;17.00;;;;;;;;;;5033356;28;20232;-67
2022/03/23 01:19:09;;;;;;;38.53;18.00;;;;;;;;;;5018198;28;20186;-67
2022/03/23 01:21:35;;;;;;;33.47;16.13;;;;;;;;;;5015963;28;20695;-66
2022/03/23 01:24:01;;;;;;;38.00;17.03;;;;;;;;;;5025160;28;20209;-67
2022/03/23 01:26:26;;;;;;;37.63;16.83;;;;;;;;;;5025413;28;20297;-67
2022/03/23 01:28:52;;;;;;;38.47;16.17;;;;;;;;;;5025270;28;20213;-67
2022/03/23 01:31:17;;;;;;;33.43;15.83;;;;;;;;;;5020898;28;20226;-68
2022/03/23 01:33:42;;;;;;;34.73;16.47;;;;;;;;;;5014670;28;20183;-67
2022/03/23 01:36:09;;;;;;;36.43;16.30;;;;;;;;;;5018928;28;20190;-67
2022/03/23 01:38:34;;;;;;;38.93;16.23;;;;;;;;;;5021999;28;20190;-67
2022/03/23 01:40:59;;;;;;;36.43;15.90;;;;;;;;;;5016297;28;20183;-66
2022/03/23 01:43:25;;;;;;;35.13;17.33;;;;;;;;;;5020014;28;20621;-67
2022/03/23 01:45:50;;;;;;;42.03;17.40;;;;;;;;;;5029766;28;20181;-67
2022/03/23 01:48:16;;;;;;;38.17;17.03;;;;;;;;;;5036449;28;20190;-66
2022/03/23 01:50:41;;;;;;;37.30;16.17;;;;;;;;;;5029407;28;20715;-67
2022/03/23 01:53:07;;;;;;;41.00;16.57;;;;;;;;;;5022196;28;20174;-67
2022/03/23 01:55:33;;;;;;;37.87;16.73;;;;;;;;;;5024397;28;20209;-66
2022/03/23 01:57:58;;;;;;;37.10;16.30;;;;;;;;;;5024456;28;20269;-66
2022/03/23 02:00:26;;;;;;;39.43;16.47;;;;;;;;;;5027646;28;20328;-67
2022/03/23 02:02:52;;;;;;;35.33;15.83;;;;;;;;;;5022079;28;20182;-67
2022/03/23 02:05:17;;;;;;;35.23;16.17;;;;;;;;;;5019444;28;20568;-67
2022/03/23 02:07:43;;;;;;;40.47;17.00;;;;;;;;;;5034002;28;20548;-67
2022/03/23 02:10:09;;;;;;;41.97;17.03;;;;;;;;;;5024947;28;20310;-67
2022/03/23 02:12:34;;;;;;;35.23;16.60;;;;;;;;;;5025481;28;20234;-67
2022/03/23 02:15:10;;;;;;;39.33;16.53;;;;;;;;;;5017324;28;20645;-67
2022/03/23 02:17:35;;;;;;;34.47;16.60;;;;;;;;;;5026981;28;20200;-66
2022/03/23 02:20:01;;;;;;;36.43;16.50;;;;;;;;;;5031178;28;20434;-67
2022/03/23 02:22:26;;;;;;;48.23;17.77;;;;;;;;;;5020245;28;20226;-67
2022/03/23 02:24:52;;;;;;;39.07;17.80;;;;;;;;;;5028731;28;20257;-67
2022/03/23 02:27:18;;;;;;;41.90;17.13;;;;;;;;;;5021258;28;20189;-67
2022/03/23 02:29:44;;;;;;;34.60;16.70;;;;;;;;;;5025730;28;20232;-67
2022/03/23 02:32:09;;;;;;;38.03;17.27;;;;;;;;;;5025786;28;20554;-67
2022/03/23 02:34:35;;;;;;;35.33;16.40;;;;;;;;;;5023716;28;20273;-67
2022/03/23 02:37:01;;;;;;;40.03;17.67;;;;;;;;;;5023824;28;20182;-67
2022/03/23 02:39:27;;;;;;;39.10;16.27;;;;;;;;;;5026294;28;20268;-67
2022/03/23 02:41:56;;;;;;;34.07;15.40;;;;;;;;;;5025437;28;20174;-67
2022/03/23 02:44:23;;;;;;;35.47;16.17;;;;;;;;;;5023930;28;20716;-67
2022/03/23 02:46:48;;;;;;;39.50;16.27;;;;;;;;;;5026392;28;20186;-67
2022/03/23 02:49:18;;;;;;;42.67;17.70;;;;;;;;;;5014866;28;20516;-67
2022/03/23 02:51:43;;;;;;;39.13;16.37;;;;;;;;;;5022267;28;20186;-67
2022/03/23 03:02:52;;;;;;;36.40;16.57;;;;;;;;;;5025843;28;20235;-67
2022/03/23 03:05:17;;;;;;;35.43;16.60;;;;;;;;;;5021772;28;20562;-67
2022/03/23 03:10:27;;;;;;;35.17;15.20;;;;;;;;;;5019860;28;20268;-66
2022/03/23 03:12:53;;;;;;;38.37;16.17;;;;;;;;;;5023676;28;20734;-67
2022/03/23 03:15:20;;;;;;;37.67;16.27;;;;;;;;;;5018624;28;20673;-66
2022/03/23 03:17:49;;;;;;;38.60;16.63;;;;;;;;;;5026802;28;20182;-67
2022/03/23 03:20:15;;;;;;;35.60;16.23;;;;;;;;;;5017801;28;20285;-67
2022/03/23 03:22:42;;;;;;;36.20;17.07;;;;;;;;;;5022897;28;20264;-67
2022/03/23 03:25:12;;;;;;;34.87;15.67;;;;;;;;;;5024793;28;20178;-67
2022/03/23 03:27:39;;;;;;;37.63;16.83;;;;;;;;;;5024561;28;20186;-67
2022/03/23 03:30:06;;;;;;;35.07;16.83;;;;;;;;;;5032191;28;20178;-67
2022/03/23 03:32:32;;;;;;;35.87;16.13;;;;;;;;;;5027654;28;20332;-67
2022/03/23 03:34:58;;;;;;;39.17;17.67;;;;;;;;;;5026728;28;20268;-67
2022/03/23 03:37:23;;;;;;;43.87;16.83;;;;;;;;;;5035131;28;20308;-67
2022/03/23 03:39:49;;;;;;;32.07;16.17;;;;;;;;;;5027012;28;20182;-67
2022/03/23 03:42:14;;;;;;;35.73;16.77;;;;;;;;;;5027626;28;20182;-67
2022/03/23 03:44:39;;;;;;;38.50;16.43;;;;;;;;;;5020918;28;20618;-67
2022/03/23 03:47:05;;;;;;;33.77;17.33;;;;;;;;;;5026713;28;20189;-67
2022/03/23 03:49:31;;;;;;;39.53;17.23;;;;;;;;;;5015306;28;20186;-67
2022/03/23 03:51:57;;;;;;;36.13;16.57;;;;;;;;;;5013826;28;20654;-67
2022/03/23 03:54:22;;;;;;;34.50;16.57;;;;;;;;;;5027123;28;20188;-66
2022/03/23 03:56:47;;;;;;;41.27;17.93;;;;;;;;;;5036457;28;20230;-66
2022/03/23 03:59:13;;;;;;;36.30;17.67;;;;;;;;;;5030727;28;20200;-67
2022/03/23 04:01:39;;;;;;;37.93;15.87;;;;;;;;;;5029359;28;20208;-67
2022/03/23 04:04:04;;;;;;;35.73;16.40;;;;;;;;;;5033575;28;20674;-67
2022/03/23 04:06:30;;;;;;;39.77;17.87;;;;;;;;;;5034908;28;20186;-68
2022/03/23 04:08:55;;;;;;;35.10;17.53;;;;;;;;;;5021648;28;20676;-67
2022/03/23 04:11:20;;;;;;;40.10;15.70;;;;;;;;;;5032317;28;20244;-67
2022/03/23 04:13:46;;;;;;;35.57;17.90;;;;;;;;;;5027324;28;20189;-67
2022/03/23 04:16:11;;;;;;;43.27;18.00;;;;;;;;;;5021764;28;20585;-67
2022/03/23 04:18:37;;;;;;;41.70;18.23;;;;;;;;;;5021945;28;20253;-67
2022/03/23 04:21:02;;;;;;;44.90;18.33;;;;;;;;;;5034378;28;20465;-67
2022/03/23 04:23:28;;;;;;;34.77;17.43;;;;;;;;;;5034836;28;20618;-67
2022/03/23 04:25:53;;;;;;;40.67;17.83;;;;;;;;;;5034624;28;20182;-68
2022/03/23 04:28:20;;;;;;;35.93;17.27;;;;;;;;;;5033597;28;20277;-68
2022/03/23 04:30:46;;;;;;;38.53;17.00;;;;;;;;;;5029348;28;20676;-67
2022/03/23 04:33:12;;;;;;;37.83;17.00;;;;;;;;;;5039286;28;20500;-66
2022/03/23 04:35:37;;;;;;;36.97;16.90;;;;;;;;;;5036945;28;20185;-66
2022/03/23 04:38:02;;;;;;;37.23;16.30;;;;;;;;;;5039499;28;20191;-66
2022/03/23 04:40:28;;;;;;;40.50;17.43;;;;;;;;;;5032426;28;20573;-66
2022/03/23 04:42:53;;;;;;;42.43;17.30;;;;;;;;;;5027750;28;20183;-66
2022/03/23 04:45:19;;;;;;;36.43;16.17;;;;;;;;;;5037871;28;20462;-66
2022/03/23 04:47:45;;;;;;;38.00;18.13;;;;;;;;;;5035909;28;20224;-66
2022/03/23 04:50:12;;;;;;;32.33;15.67;;;;;;;;;;5029362;28;20281;-66
2022/03/23 04:52:42;;;;;;;39.50;18.10;;;;;;;;;;5029259;28;20703;-67
2022/03/23 04:55:09;;;;;;;38.70;16.50;;;;;;;;;;5035197;28;20186;-67
2022/03/23 04:57:35;;;;;;;39.47;17.77;;;;;;;;;;5023968;28;20213;-66
2022/03/23 05:00:01;;;;;;;39.47;17.37;;;;;;;;;;5026758;28;20205;-66
2022/03/23 05:02:26;;;;;;;34.30;16.57;;;;;;;;;;5021230;28;20183;-66
2022/03/23 05:04:52;;;;;;;33.70;16.20;;;;;;;;;;5033495;28;20186;-66
2022/03/23 05:07:18;;;;;;;35.57;17.00;;;;;;;;;;5027586;28;20260;-66
2022/03/23 05:09:43;;;;;;;34.67;16.60;;;;;;;;;;5030471;28;20269;-67
2022/03/23 05:12:09;;;;;;;39.50;16.83;;;;;;;;;;5030186;28;20231;-66
2022/03/23 05:14:34;;;;;;;41.53;16.83;;;;;;;;;;5021230;28;20235;-67
2022/03/23 05:17:00;;;;;;;33.83;16.50;;;;;;;;;;5026340;28;20174;-67
2022/03/23 05:19:25;;;;;;;34.70;16.53;;;;;;;;;;5027908;28;20640;-67
2022/03/23 05:21:51;;;;;;;43.37;17.47;;;;;;;;;;5022104;28;20653;-67
2022/03/23 05:24:16;;;;;;;34.77;16.50;;;;;;;;;;5028873;28;20283;-67
2022/03/23 05:26:42;;;;;;;39.80;18.13;;;;;;;;;;5033116;28;20181;-67
2022/03/23 05:29:07;;;;;;;37.13;17.07;;;;;;;;;;5019349;28;20198;-67
2022/03/23 05:31:32;;;;;;;40.57;17.73;;;;;;;;;;5026028;28;20209;-67
2022/03/23 05:33:58;;;;;;;41.70;17.57;;;;;;;;;;5030712;28;20552;-67
2022/03/23 05:36:23;;;;;;;42.10;17.87;;;;;;;;;;5038377;28;20191;-67
2022/03/23 05:38:49;;;;;;;39.77;17.70;;;;;;;;;;5035049;28;20182;-67
2022/03/23 05:41:14;;;;;;;37.37;16.87;;;;;;;;;;5035145;28;20185;-67
2022/03/23 05:43:39;;;;;;;37.77;15.90;;;;;;;;;;5023146;28;20294;-67
2022/03/23 05:46:04;;;;;;;31.90;15.80;;;;;;;;;;5034647;28;20596;-67
2022/03/23 05:48:30;;;;;;;40.73;16.23;;;;;;;;;;5036839;28;20604;-66
2022/03/23 05:50:55;;;;;;;40.00;17.07;;;;;;;;;;5041521;28;20544;-67
2022/03/23 05:53:21;;;;;;;36.20;17.37;;;;;;;;;;5032519;28;20191;-67
2022/03/23 05:55:46;;;;;;;36.50;15.90;;;;;;;;;;5032195;28;20662;-67
2022/03/23 05:58:11;;;;;;;41.00;17.60;;;;;;;;;;5029371;28;20670;-67
2022/03/23 06:00:37;;;;;;;39.43;17.23;;;;;;;;;;5027253;28;20611;-67
2022/03/23 06:03:02;;;;;;;40.93;17.97;;;;;;;;;;5031386;28;20177;-67
2022/03/23 06:05:27;;;;;;;37.77;18.03;;;;;;;;;;5032669;28;20181;-67
2022/03/23 06:07:53;;;;;;;37.43;18.77;;;;;;;;;;5024091;28;20203;-67
2022/03/23 06:10:18;;;;;;;43.03;19.20;;;;;;;;;;5022980;28;20551;-67
2022/03/23 06:12:44;;;;;;;38.60;17.63;;;;;;;;;;5034022;28;20213;-67
2022/03/23 06:15:11;;;;;;;32.07;16.30;;;;;;;;;;5026736;28;20179;-67
2022/03/23 06:17:37;;;;;;;37.67;17.87;;;;;;;;;;5035150;28;20320;-68
2022/03/23 06:20:04;;;;;;;39.20;18.03;;;;;;;;;;5042850;28;20186;-67
2022/03/23 06:22:29;;;;;;;43.97;19.33;;;;;;;;;;5036092;28;20676;-67
2022/03/23 06:24:55;;;;;;;45.60;19.17;;;;;;;;;;5034395;28;20208;-67
2022/03/23 06:27:20;;;;;;;38.70;18.63;;;;;;;;;;5041126;28;20553;-67
2022/03/23 06:29:46;;;;;;;43.90;19.37;;;;;;;;;;5029344;28;20194;-67
2022/03/23 06:32:12;;;;;;;36.27;18.17;;;;;;;;;;5021604;28;20201;-67
2022/03/23 06:34:38;;;;;;;42.77;19.27;;;;;;;;;;5019871;28;20175;-67
2022/03/23 06:37:04;;;;;;;45.37;19.73;;;;;;;;;;5029360;28;20185;-67
2022/03/23 06:39:30;;;;;;;40.40;18.70;;;;;;;;;;5023936;28;20190;-67
2022/03/23 06:41:56;;;;;;;45.53;19.60;;;;;;;;;;5024069;28;20181;-67
2022/03/23 06:44:21;;;;;;;41.87;20.43;;;;;;;;;;5025389;28;20627;-67
2022/03/23 06:46:46;;;;;;;40.47;19.37;;;;;;;;;;5028938;28;20187;-66
2022/03/23 06:49:12;;;;;;;40.03;19.97;;;;;;;;;;5026309;28;20181;-66
2022/03/23 06:51:38;;;;;;;47.13;22.30;;;;;;;;;;5028220;28;20230;-66
2022/03/23 06:54:03;;;;;;;50.17;21.40;;;;;;;;;;5035805;28;20185;-66
2022/03/23 06:56:29;;;;;;;46.37;23.20;;;;;;;;;;5039840;28;20544;-66
2022/03/23 06:58:55;;;;;;;49.77;23.00;;;;;;;;;;5037054;28;20181;-66
2022/03/23 07:01:21;;;;;;;47.97;22.80;;;;;;;;;;5040304;28;20239;-66
2022/03/23 07:03:48;;;;;;;49.23;22.73;;;;;;;;;;5036092;28;20619;-66
2022/03/23 07:06:15;;;;;;;45.03;21.83;;;;;;;;;;5027653;28;20201;-66
2022/03/23 07:11:24;;;;;;;50.00;20.90;;;;;;;;;;5037624;28;20250;-66
2022/03/23 07:13:50;;;;;;;49.10;22.07;;;;;;;;;;5043489;28;20270;-66
2022/03/23 07:16:15;;;;;;;49.57;20.97;;;;;;;;;;5032967;28;20246;-66
2022/03/23 07:18:40;;;;;;;46.23;21.10;;;;;;;;;;5047009;28;20590;-66
2022/03/23 07:21:06;;;;;;;37.03;19.30;;;;;;;;;;5031672;28;20192;-66
2022/03/23 07:23:32;;;;;;;44.67;20.40;;;;;;;;;;5041181;28;20198;-66
2022/03/23 07:25:57;;;;;;;40.40;21.20;;;;;;;;;;5031972;28;20202;-66
2022/03/23 07:28:22;;;;;;;43.83;21.07;;;;;;;;;;5044685;28;20665;-66
2022/03/23 07:30:48;;;;;;;42.13;20.00;;;;;;;;;;5039556;28;20198;-66
2022/03/23 07:33:13;;;;;;;37.17;19.43;;;;;;;;;;5035558;28;20178;-66
2022/03/23 07:35:38;;;;;;;39.97;21.30;;;;;;;;;;5021666;28;20185;-67
2022/03/23 07:38:04;;;;;;;40.80;20.10;;;;;;;;;;5039285;28;20174;-68
2022/03/23 07:40:29;;;;;;;42.90;20.90;;;;;;;;;;5035833;28;20184;-67
2022/03/23 07:42:54;;;;;;;39.83;19.50;;;;;;;;;;5042595;28;20672;-66
2022/03/23 07:45:20;;;;;;;41.80;20.03;;;;;;;;;;5043389;28;20220;-66
2022/03/23 07:47:45;;;;;;;39.70;20.00;;;;;;;;;;5036981;28;20661;-67
2022/03/23 07:50:11;;;;;;;40.83;18.00;;;;;;;;;;5043159;28;20197;-66
2022/03/23 07:52:36;;;;;;;37.73;18.97;;;;;;;;;;5042835;28;20581;-67
2022/03/23 07:55:02;;;;;;;35.07;18.80;;;;;;;;;;5040900;28;20187;-66
2022/03/23 07:57:27;;;;;;;34.07;18.93;;;;;;;;;;5046681;28;20547;-67
2022/03/23 07:59:55;;;;;;;35.67;19.03;;;;;;;;;;5035272;28;20262;-67
2022/03/23 08:02:22;;;;;;;36.23;17.50;;;;;;;;;;5044449;28;20201;-67
2022/03/23 08:04:47;;;;;;;33.13;18.20;;;;;;;;;;5025353;28;20261;-66
2022/03/23 08:07:13;;;;;;;31.27;18.20;;;;;;;;;;5025369;28;20194;-66
2022/03/23 08:09:38;;;;;;;35.70;18.15;;;;;;;;;;5026175;28;20304;-66
2022/03/23 08:12:04;;;;;;;30.47;17.53;;;;;;;;;;5022536;28;20230;-66
2022/03/23 08:14:29;;;;;;;34.35;18.05;;;;;;;;;;5028430;28;20178;-66
2022/03/23 08:16:55;;;;;;;36.30;17.42;;;;;;;;;;5028340;28;20186;-66
2022/03/23 08:19:22;;;;;;;35.60;18.38;;;;;;;;;;5028199;28;20225;-66
2022/03/23 08:21:48;;;;;;;32.25;18.10;;;;;;;;;;5026054;28;20624;-66
2022/03/23 08:24:13;;;;;;;33.70;18.70;;;;;;;;;;5027902;28;20701;-66
2022/03/23 08:26:39;;;;;;;31.27;17.15;;;;;;;;;;5021710;28;20189;-66
2022/03/23 08:29:04;;;;;;;31.95;18.27;;;;;;;;;;5025570;28;20680;-66
2022/03/23 08:31:29;;;;;;;30.08;17.65;;;;;;;;;;5013218;28;20198;-66
2022/03/23 08:33:55;;;;;;;30.63;16.60;;;;;;;;;;5035036;28;20566;-66
2022/03/23 08:36:20;;;;;;;27.33;15.75;;;;;;;;;;5032046;28;20178;-66
2022/03/23 08:38:45;;;;;;;23.70;14.98;;;;;;;;;;5031811;28;20209;-66
2022/03/23 08:41:12;;;;;;;24.13;14.77;;;;;;;;;;5044975;28;20217;-66
2022/03/23 08:43:38;;;;;;;24.27;14.48;;;;;;;;;;5030469;28;20194;-66
2022/03/23 08:46:03;;;;;;;22.90;14.10;;;;;;;;;;5030182;28;20219;-66
2022/03/23 08:48:29;;;;;;;24.05;15.02;;;;;;;;;;5031404;28;20271;-66
2022/03/23 08:50:54;;;;;;;25.30;14.35;;;;;;;;;;5023213;28;20182;-67
2022/03/23 08:53:20;;;;;;;24.65;14.73;;;;;;;;;;5027272;28;20189;-67
2022/03/23 08:55:46;;;;;;;28.92;14.50;;;;;;;;;;5027513;28;20688;-67
2022/03/23 08:58:12;;;;;;;27.75;15.20;;;;;;;;;;5028934;28;20189;-67
2022/03/23 09:00:40;;;;;;;28.45;15.50;;;;;;;;;;5029784;28;20196;-68
2022/03/23 09:03:05;;;;;;;25.20;15.50;;;;;;;;;;5036802;28;20214;-67
2022/03/23 09:05:31;;;;;;;26.13;15.27;;;;;;;;;;5031645;28;20283;-67
2022/03/23 09:07:56;;;;;;;28.25;15.45;;;;;;;;;;5043623;28;20193;-66
2022/03/23 09:10:23;;;;;;;23.90;15.80;;;;;;;;;;5034948;28;20175;-65
2022/03/23 09:12:48;;;;;;;27.50;15.73;;;;;;;;;;5039633;28;20217;-66
2022/03/23 09:15:15;;;;;;;24.52;14.88;;;;;;;;;;5030664;28;20186;-66
2022/03/23 09:17:42;;;;;;;25.88;15.45;;;;;;;;;;5028440;28;20181;-66
2022/03/23 09:20:10;;;;;;;23.95;15.80;;;;;;;;;;5027702;28;20683;-66
2022/03/23 09:22:36;;;;;;;27.00;16.38;;;;;;;;;;5033554;28;20186;-66
2022/03/23 09:25:10;;;;;;;27.38;15.35;;;;;;;;;;5020283;28;20212;-66
2022/03/23 09:27:43;;;;;;;25.05;16.13;;;;;;;;;;5024110;28;20563;-67
2022/03/23 09:30:11;;;;;;;23.85;15.35;;;;;;;;;;5016511;28;20190;-67
2022/03/23 09:32:40;;;;;;;26.02;14.63;;;;;;;;;;5022408;28;20573;-67
2022/03/23 09:35:07;;;;;;;25.42;14.75;;;;;;;;;;5029014;28;20531;-66
2022/03/23 09:37:47;;;;;;;24.65;14.18;;;;;;;;;;5020681;28;20224;-66
2022/03/23 09:40:28;;;;;;;25.02;14.13;;;;;;;;;;5024879;28;20178;-66
2022/03/23 09:42:58;;;;;;;26.30;14.68;;;;;;;;;;5022627;28;20193;-66
2022/03/23 09:48:03;;;;;;;21.73;14.25;;;;;;;;;;5025110;28;20652;-66
2022/03/23 09:50:31;;;;;;;21.25;13.32;;;;;;;;;;5026244;28;20189;-66
2022/03/23 09:52:57;;;;;;;22.77;13.75;;;;;;;;;;5030049;28;20265;-66
2022/03/23 09:55:23;;;;;;;21.83;13.93;;;;;;;;;;5032609;28;20336;-66
2022/03/23 09:57:49;;;;;;;23.33;14.57;;;;;;;;;;5041643;28;20268;-66
2022/03/23 10:00:15;;;;;;;21.02;14.13;;;;;;;;;;5030350;28;20222;-66
2022/03/23 10:02:40;;;;;;;21.35;13.18;;;;;;;;;;5023864;28;20273;-66
2022/03/23 10:05:22;;;;;;;18.73;12.52;;;;;;;;;;5030678;28;20743;-66
2022/03/23 10:08:03;;;;;;;20.77;12.48;;;;;;;;;;5039283;28;20185;-66
2022/03/23 10:11:06;;;;;;;16.40;12.55;;;;;;;;;;5029746;28;20186;-66
2022/03/23 10:14:09;;;;;;;17.85;12.45;;;;;;;;;;5020225;28;20233;-66
2022/03/23 10:17:09;;;;;;;18.55;12.10;;;;;;;;;;5035558;28;20749;-67
2022/03/23 10:19:41;;;;;;;28.65;11.60;;;;;;;;;;5024163;28;20319;-66
2022/03/23 10:22:10;;;;;;;17.55;11.20;;;;;;;;;;5022503;28;20197;-66
2022/03/23 10:24:37;;;;;;;21.38;11.82;;;;;;;;;;5035880;28;20291;-66
2022/03/23 10:27:07;;;;;;;17.20;12.77;;;;;;;;;;5030586;28;20185;-66
2022/03/23 10:29:40;;;;;;;18.95;12.07;;;;;;;;;;5026364;28;20616;-66
2022/03/23 10:32:10;;;;;;;18.38;11.68;;;;;;;;;;5014066;28;20280;-66
2022/03/23 10:34:50;;;;;;;20.85;12.75;;;;;;;;;;5025824;28;20184;-67
2022/03/23 10:37:24;;;;;;;18.95;12.57;;;;;;;;;;5019937;28;20269;-66
2022/03/23 10:39:50;;;;;;;15.65;12.23;;;;;;;;;;5026072;28;20186;-66
2022/03/23 10:42:19;;;;;;;20.13;12.48;;;;;;;;;;5026681;28;20224;-66
2022/03/23 10:44:45;;;;;;;17.33;12.88;;;;;;;;;;5045438;28;20201;-66
2022/03/23 10:47:44;;;;;;;19.70;13.20;;;;;;;;;;5032747;28;20196;-67
2022/03/23 10:50:19;;;;;;;20.65;12.95;;;;;;;;;;5031610;28;20594;-66
2022/03/23 10:52:50;;;;;;;18.58;12.13;;;;;;;;;;5026958;28;20213;-66
2022/03/23 10:55:16;;;;;;;16.23;12.27;;;;;;;;;;5030887;28;20190;-67
2022/03/23 10:57:44;;;;;;;15.98;12.02;;;;;;;;;;5030643;28;20208;-67
2022/03/23 11:00:35;;;;;;;16.85;12.35;;;;;;;;;;5042559;28;20185;-66
2022/03/23 11:03:02;;;;;;;16.63;12.32;;;;;;;;;;5019299;28;20178;-66
2022/03/23 11:05:37;;;;;;;19.70;12.88;;;;;;;;;;5042549;28;20189;-64
2022/03/23 11:08:20;;;;;;;18.55;12.25;;;;;;;;;;5042020;28;20466;-65
2022/03/23 11:16:30;;;;;;;19.77;12.82;;;;;;;;;;5012883;28;20557;-66
2022/03/23 11:19:21;;;;;;;21.17;12.68;;;;;;;;;;5023425;28;20182;-65
2022/03/23 11:22:01;;;;;;;20.10;12.90;;;;;;;;;;5044730;28;20661;-66
2022/03/23 11:24:29;;;;;;;22.20;14.00;;;;;;;;;;5046793;28;20673;-66
2022/03/23 11:26:55;;;;;;;18.25;13.15;;;;;;;;;;5032619;28;20186;-66
2022/03/23 11:29:22;;;;;;;19.10;13.05;;;;;;;;;;5028088;28;20186;-66
2022/03/23 11:31:47;;;;;;;21.65;13.50;;;;;;;;;;5029667;28;20221;-66
2022/03/23 11:34:15;;;;;;;20.40;13.98;;;;;;;;;;5029022;28;20237;-66
2022/03/23 11:36:42;;;;;;;20.40;13.60;;;;;;;;;;5031034;28;20209;-66
2022/03/23 11:39:08;;;;;;;18.27;13.25;;;;;;;;;;5045842;28;20212;-66
2022/03/23 11:41:33;;;;;;;17.70;12.57;;;;;;;;;;5043328;28;20179;-66
2022/03/23 11:43:59;;;;;;;17.75;12.32;;;;;;;;;;5043112;28;20236;-66
2022/03/23 11:46:26;;;;;;;16.73;12.20;;;;;;;;;;5025260;28;20178;-66
2022/03/23 11:49:13;;;;;;;20.70;12.73;;;;;;;;;;5031655;28;20215;-66
2022/03/23 11:51:44;;;;;;;17.40;12.48;;;;;;;;;;5012482;28;20587;-66
2022/03/23 11:55:37;;;;;;;21.42;13.13;;;;;;;;;;5031744;28;20685;-66
2022/03/23 11:57:17;;;;;;;19.55;12.65;;;;;;;;;;5026480;28;20224;-66
2022/03/23 11:59:43;;;;;;;19.85;12.65;;;;;;;;;;5029633;28;20182;-66
2022/03/23 12:02:09;;;;;;;14.35;10.88;;;;;;;;;;5022129;28;20198;-66
2022/03/23 12:04:34;;;;;;;16.88;11.43;;;;;;;;;;5029397;28;20652;-66
2022/03/23 12:07:02;;;;;;;17.77;11.77;;;;;;;;;;5036899;28;20215;-66
2022/03/23 12:09:38;;;;;;;16.42;10.05;;;;;;;;;;5041679;28;20276;-65
2022/03/23 12:12:30;;;;;;;14.80;10.32;;;;;;;;;;5028099;28;20230;-65
2022/03/23 12:15:23;;;;;;;15.13;11.65;;;;;;;;;;5023232;28;20541;-66
2022/03/23 12:17:54;;;;;;;15.35;10.75;;;;;;;;;;5021212;28;20190;-66
2022/03/23 12:20:31;;;;;;;21.88;11.93;;;;;;;;;;5037809;28;20525;-66
2022/03/23 12:23:11;;;;;;;13.63;10.52;;;;;;;;;;5018641;28;20240;-66
2022/03/23 12:26:01;;;;;;;16.33;12.43;;;;;;;;;;5035544;28;20268;-66
2022/03/23 12:28:38;;;;;;;16.98;12.07;;;;;;;;;;5027453;28;20204;-66
2022/03/23 12:31:09;;;;;;;18.08;11.35;;;;;;;;;;5038011;28;20599;-66
2022/03/23 12:33:56;;;;;;;18.35;11.52;;;;;;;;;;5042909;28;20169;-66
2022/03/23 12:37:01;;;;;;;17.83;11.30;;;;;;;;;;5042793;28;20181;-66
2022/03/23 12:39:31;;;;;;;16.00;11.05;;;;;;;;;;5018013;28;20173;-65
2022/03/23 12:41:58;;;;;;;18.30;12.55;;;;;;;;;;5024788;28;20178;-66
2022/03/23 12:44:32;;;;;;;19.02;12.68;;;;;;;;;;5022695;28;20745;-66
2022/03/23 12:47:03;;;;;;;17.20;11.60;;;;;;;;;;5035922;28;20646;-66
2022/03/23 12:58:13;;;;;;;15.90;12.18;;;;;;;;;;5030595;28;20208;-66
2022/03/23 13:00:54;;;;;;;22.08;12.13;;;;;;;;;;5038337;28;20200;-66
2022/03/23 13:03:19;;;;;;;19.45;13.00;;;;;;;;;;5022915;28;20263;-66
2022/03/23 13:06:00;;;;;;;17.77;11.85;;;;;;;;;;5031210;28;20630;-66
2022/03/23 13:08:33;;;;;;;20.00;12.98;;;;;;;;;;5028958;28;20188;-66
2022/03/23 13:11:03;;;;;;;16.95;12.63;;;;;;;;;;5025202;28;20208;-66
2022/03/23 13:13:33;;;;;;;19.58;12.80;;;;;;;;;;5035369;28;20229;-66
2022/03/23 13:16:00;;;;;;;19.05;12.60;;;;;;;;;;5037396;28;20542;-66
2022/03/23 13:18:28;;;;;;;19.88;12.95;;;;;;;;;;5024996;28;20645;-66
2022/03/23 13:20:54;;;;;;;21.73;13.80;;;;;;;;;;5030800;28;20174;-67
2022/03/23 13:23:19;;;;;;;18.30;13.68;;;;;;;;;;5030977;28;20181;-66
2022/03/23 13:25:47;;;;;;;22.50;14.25;;;;;;;;;;5032124;28;20192;-66
2022/03/23 13:28:14;;;;;;;22.15;13.93;;;;;;;;;;5042627;28;20272;-67
2022/03/23 13:30:42;;;;;;;21.73;14.35;;;;;;;;;;5041939;28;20704;-66
2022/03/23 13:33:09;;;;;;;24.20;13.50;;;;;;;;;;5043003;28;20185;-67
2022/03/23 13:35:42;;;;;;;19.83;13.73;;;;;;;;;;5039777;28;20186;-67
2022/03/23 13:38:08;;;;;;;20.38;12.93;;;;;;;;;;5043010;28;20221;-67
2022/03/23 13:43:25;;;;;;;19.00;13.30;;;;;;;;;;5038151;28;20276;-67
2022/03/23 13:45:57;;;;;;;19.67;12.30;;;;;;;;;;5038196;28;20265;-67
2022/03/23 13:48:23;;;;;;;21.67;14.00;;;;;;;;;;5040470;28;20192;-67
2022/03/23 13:50:52;;;;;;;18.70;13.60;;;;;;;;;;5039800;28;20475;-67
2022/03/23 13:53:19;;;;;;;23.38;13.75;;;;;;;;;;5041478;28;20739;-67
2022/03/23 13:55:50;;;;;;;20.52;14.32;;;;;;;;;;5040674;28;20185;-67
2022/03/23 13:58:17;;;;;;;21.73;13.00;;;;;;;;;;5037948;28;20221;-67
2022/03/23 14:00:50;;;;;;;20.48;13.70;;;;;;;;;;5040426;28;20496;-67
2022/03/23 14:03:20;;;;;;;22.67;14.15;;;;;;;;;;5038489;28;20221;-67
2022/03/23 14:06:07;;;;;;;19.52;13.63;;;;;;;;;;5036760;28;20311;-67
2022/03/23 14:08:37;;;;;;;21.67;13.68;;;;;;;;;;5022842;28;20552;-67
2022/03/23 14:11:04;;;;;;;19.58;13.02;;;;;;;;;;5025419;28;20193;-67
2022/03/23 14:13:29;;;;;;;20.30;13.00;;;;;;;;;;5026675;28;20666;-67
2022/03/23 14:15:57;;;;;;;20.80;14.27;;;;;;;;;;5025857;28;20223;-67
2022/03/23 14:18:25;;;;;;;20.52;13.95;;;;;;;;;;5024252;28;20256;-67
2022/03/23 14:20:53;;;;;;;18.23;12.68;;;;;;;;;;5040552;28;20300;-68
2022/03/23 14:23:21;;;;;;;21.13;15.20;;;;;;;;;;5031174;28;20186;-66
2022/03/23 14:25:50;;;;;;;22.77;14.65;;;;;;;;;;5037046;28;20203;-66
2022/03/23 14:28:25;;;;;;;21.52;14.20;;;;;;;;;;5038742;28;20189;-66
2022/03/23 14:31:00;;;;;;;21.80;13.80;;;;;;;;;;5035826;28;20556;-66
2022/03/23 14:33:27;;;;;;;21.17;14.18;;;;;;;;;;5034233;28;20194;-66
2022/03/23 14:35:54;;;;;;;21.13;14.65;;;;;;;;;;5043064;28;20264;-67
2022/03/23 14:38:23;;;;;;;21.08;13.75;;;;;;;;;;5039370;28;20189;-65
2022/03/23 14:40:55;;;;;;;22.48;14.38;;;;;;;;;;5045595;28;20231;-66
2022/03/23 14:43:29;;;;;;;23.55;14.52;;;;;;;;;;5023143;28;20387;-66
2022/03/23 14:45:55;;;;;;;22.50;14.70;;;;;;;;;;5017753;28;20178;-68
2022/03/23 14:48:30;;;;;;;20.90;14.07;;;;;;;;;;5028133;28;20193;-66
2022/03/23 14:50:57;;;;;;;23.38;14.88;;;;;;;;;;5029454;28;20204;-66
2022/03/23 14:53:25;;;;;;;22.30;14.15;;;;;;;;;;5029524;28;20190;-67
2022/03/23 14:55:51;;;;;;;23.88;14.68;;;;;;;;;;5029015;28;20273;-66